Terminal Aerodrome Forecast
Issued by NWS Binghamton, NY

Home | Current Version | Previous Version | Text Only | Print | Product List | Glossary On
Versions: 1 2 3 4 5 6 7 8 9 10 11 12 13 14 15 16 17 18
578
FTUS41 KBGM 222320
TAFAVP
TAF
KAVP 222320Z 2300/2324 22004KT P6SM BKN120
     FM231200 21004KT P6SM -SHRA BKN150
     FM231500 23011KT 6SM -SHRA BKN025
     FM231800 23011G20KT P6SM -SHRA OVC015
     FM232200 23010KT 5SM -SHRA OVC030=

USA.gov is the U.S. government's official web portal to all federal, state and local government web resources and services.